createdAt,value
2024-01-29T00:03:11.595Z,0.8
2024-01-29T00:09:09.851Z,0.8
2024-01-29T00:15:05.696Z,0.8
2024-01-29T00:21:00.738Z,0.7
2024-01-29T00:26:54.916Z,0.7
2024-01-29T00:32:34.572Z,0.6
2024-01-29T00:38:34.345Z,0.6
2024-01-29T00:44:28.964Z,0.6
2024-01-29T00:50:08.580Z,0.6
2024-01-29T00:56:10.459Z,0.6
2024-01-29T01:02:05.580Z,0.6
2024-01-29T01:08:07.061Z,0.6
2024-01-29T01:14:00.570Z,0.6
2024-01-29T01:19:40.761Z,0.6
2024-01-29T01:25:35.087Z,0.5
2024-01-29T01:31:29.811Z,0.5
2024-01-29T01:37:24.507Z,0.5
2024-01-29T01:43:21.378Z,0.4
2024-01-29T01:49:23.583Z,0.4
2024-01-29T01:55:18.208Z,0.3
2024-01-29T02:01:16.304Z,0.3
2024-01-29T02:07:11.795Z,0.2
2024-01-29T02:13:06.212Z,0.1
2024-01-29T02:19:00.675Z,0.1
2024-01-29T02:24:55.463Z,0.1
2024-01-29T02:30:50.038Z,0.1
2024-01-29T02:36:46.943Z,0
2024-01-29T02:42:41.314Z,0
2024-01-29T02:48:20.520Z,-0.1
2024-01-29T02:54:15.802Z,-0.1
2024-01-29T03:00:09.829Z,-0.1
2024-01-29T03:06:05.699Z,-0.1
2024-01-29T03:12:04.161Z,-0.1
2024-01-29T03:17:44.841Z,-0.1
2024-01-29T03:23:43.666Z,-0.2
2024-01-29T03:29:37.781Z,-0.2
2024-01-29T03:35:32.272Z,-0.3
2024-01-29T03:41:11.042Z,-0.3
2024-01-29T03:47:05.256Z,-0.4
2024-01-29T03:53:00.205Z,-0.5
2024-01-29T03:58:57.478Z,-0.6
2024-01-29T04:04:55.525Z,-0.7
2024-01-29T04:10:35.436Z,-0.8
2024-01-29T04:16:29.217Z,-0.8
2024-01-29T04:22:29.691Z,-0.9
2024-01-29T04:28:11.496Z,-0.9
2024-01-29T04:34:06.463Z,-0.9
2024-01-29T04:40:01.236Z,-0.8
2024-01-29T04:45:56.482Z,-0.8
2024-01-29T04:51:37.471Z,-0.8
2024-01-29T04:57:16.850Z,-0.7
2024-01-29T05:02:40.247Z,-0.6
2024-01-29T05:08:23.693Z,-0.6
2024-01-29T05:14:03.544Z,-0.6
2024-01-29T05:19:27.868Z,-0.5
2024-01-29T05:25:10.023Z,-0.4
2024-01-29T05:31:04.304Z,-0.3
2024-01-29T05:36:53.612Z,-0.3
2024-01-29T05:42:16.378Z,-0.1
2024-01-29T05:47:55.297Z,-0.1
2024-01-29T05:53:50.121Z,0.1
2024-01-29T05:59:44.507Z,0.2
2024-01-29T06:05:24.332Z,0.2
2024-01-29T06:11:08.974Z,0.3
2024-01-29T06:16:47.403Z,0.3
2024-01-29T06:22:53.338Z,0.4
2024-01-29T06:28:35.059Z,0.5
2024-01-29T06:34:32.846Z,0.6
2024-01-29T06:40:27.238Z,0.6
2024-01-29T06:46:23.282Z,0.8
2024-01-29T06:52:19.085Z,0.8
2024-01-29T06:58:13.360Z,0.9
2024-01-29T07:04:09.571Z,0.9
2024-01-29T07:10:08.474Z,1
2024-01-29T07:16:02.974Z,1.1
2024-01-29T07:21:59.238Z,1.1
2024-01-29T07:27:38.102Z,1.3
2024-01-29T07:33:34.690Z,1.4
2024-01-29T07:39:30.023Z,1.6
2024-01-29T07:45:27.244Z,1.9
2024-01-29T07:51:22.100Z,2.2
2024-01-29T07:57:19.650Z,2.6
2024-01-29T08:03:15.783Z,3
2024-01-29T08:09:11.170Z,3.6
2024-01-29T08:15:06.302Z,4
2024-01-29T08:21:07.920Z,4.4
2024-01-29T08:27:02.596Z,4.9
2024-01-29T08:32:58.807Z,5.4
2024-01-29T08:38:54.715Z,6.1
2024-01-29T08:44:48.884Z,6.9
2024-01-29T08:50:46.534Z,8.1
2024-01-29T08:56:46.911Z,9.9
2024-01-29T09:02:42.179Z,12.6
2024-01-29T09:08:47.328Z,15.9
2024-01-29T09:14:43.694Z,17.3
2024-01-29T09:20:24.675Z,17.8
2024-01-29T09:26:19.996Z,17.8
2024-01-29T09:32:17.588Z,17.4
2024-01-29T09:38:23.528Z,16.9
2024-01-29T09:44:20.497Z,16.3
2024-01-29T09:49:47.202Z,15.8
2024-01-29T09:55:44.962Z,15.4
2024-01-29T10:01:41.383Z,15.3
2024-01-29T10:07:38.189Z,15.3
2024-01-29T10:13:17.103Z,15.4
2024-01-29T10:19:11.494Z,15.6
2024-01-29T10:24:51.546Z,15.9
2024-01-29T10:30:32.503Z,16.5
2024-01-29T10:35:58.172Z,17.1
2024-01-29T10:41:30.107Z,17.3
2024-01-29T10:47:08.721Z,16.9
2024-01-29T10:52:48.284Z,16.4
2024-01-29T10:58:29.415Z,16.1
2024-01-29T11:04:20.399Z,16
2024-01-29T11:10:01.277Z,15.9
2024-01-29T11:15:41.732Z,15.9
2024-01-29T11:21:38.710Z,15.9
2024-01-29T11:27:24.898Z,15.9
2024-01-29T11:33:23.443Z,16.1
2024-01-29T11:39:30.634Z,16.4
2024-01-29T11:45:27.720Z,16.8
2024-01-29T11:51:25.733Z,17.4
2024-01-29T11:57:18.274Z,17.8
2024-01-29T12:03:14.163Z,18.5
2024-01-29T12:08:57.974Z,19.6
2024-01-29T12:14:52.369Z,20.9
2024-01-29T12:20:49.345Z,21.8
2024-01-29T12:26:46.230Z,21.8
2024-01-29T12:32:41.093Z,20.9
2024-01-29T12:38:23.060Z,20.4
2024-01-29T12:44:20.276Z,19.9
2024-01-29T12:50:16.325Z,18.9
2024-01-29T12:55:55.318Z,17.5
2024-01-29T13:01:35.530Z,16.4
2024-01-29T13:07:37.554Z,15.3
2024-01-29T13:13:35.877Z,14.3
2024-01-29T13:19:31.215Z,13.3
2024-01-29T13:25:10.581Z,12.4
2024-01-29T13:31:07.373Z,11.6
2024-01-29T13:36:51.466Z,11
2024-01-29T13:42:48.549Z,10.4
2024-01-29T13:48:45.502Z,10
2024-01-29T13:54:40.665Z,9.5
2024-01-29T14:00:37.146Z,9
2024-01-29T14:06:34.000Z,8.5
2024-01-29T14:12:29.981Z,8.1
2024-01-29T14:18:40.929Z,7.6
2024-01-29T14:24:36.344Z,7.2
2024-01-29T14:30:31.312Z,6.8
2024-01-29T14:36:31.061Z,6.4
2024-01-29T14:42:29.143Z,6.1
2024-01-29T14:48:27.295Z,5.7
2024-01-29T14:54:23.304Z,5.4
2024-01-29T15:00:19.949Z,5.1
2024-01-29T15:06:16.878Z,4.8
2024-01-29T15:12:13.999Z,4.5
2024-01-29T15:18:11.046Z,4.3
2024-01-29T15:24:08.712Z,4
2024-01-29T15:30:04.564Z,3.8
2024-01-29T15:35:59.507Z,3.5
2024-01-29T15:41:56.008Z,3.3
2024-01-29T15:47:56.050Z,3.1
2024-01-29T15:53:54.280Z,2.9
2024-01-29T15:59:48.439Z,2.7
2024-01-29T16:05:43.351Z,2.6
2024-01-29T16:11:38.154Z,2.4
2024-01-29T16:17:35.976Z,2.3
2024-01-29T16:23:31.915Z,2.1
2024-01-29T16:29:26.637Z,2
2024-01-29T16:35:22.988Z,1.9
2024-01-29T16:41:21.693Z,1.9
2024-01-29T16:47:15.663Z,1.8
2024-01-29T16:53:11.995Z,1.7
2024-01-29T16:59:07.258Z,1.6
2024-01-29T17:05:04.298Z,1.6
2024-01-29T17:11:00.554Z,1.6
2024-01-29T17:16:57.139Z,1.5
2024-01-29T17:22:56.698Z,1.4
2024-01-29T17:28:50.677Z,1.4
2024-01-29T17:34:47.173Z,1.3
2024-01-29T17:40:42.208Z,1.3
2024-01-29T17:46:38.249Z,1.3
2024-01-29T17:52:34.017Z,1.3
2024-01-29T17:58:31.670Z,1.3
2024-01-29T18:04:26.831Z,1.2
2024-01-29T18:10:06.282Z,1.2
2024-01-29T18:15:47.477Z,1.1
2024-01-29T18:21:27.352Z,1.1
2024-01-29T18:27:08.845Z,1.1
2024-01-29T18:33:02.907Z,1.1
2024-01-29T18:38:57.867Z,1
2024-01-29T18:44:52.347Z,1
2024-01-29T18:50:50.961Z,0.9
2024-01-29T18:56:45.396Z,0.9
2024-01-29T19:02:41.982Z,0.8
2024-01-29T19:08:41.110Z,0.8
2024-01-29T19:14:40.661Z,0.8
2024-01-29T19:20:21.013Z,0.8
2024-01-29T19:25:59.574Z,0.7
2024-01-29T19:31:39.146Z,0.7
2024-01-29T19:37:35.090Z,0.7
2024-01-29T19:43:29.800Z,0.6
2024-01-29T19:49:24.473Z,0.6
2024-01-29T19:55:21.952Z,0.6
2024-01-29T20:01:17.135Z,0.6
2024-01-29T20:07:13.198Z,0.6
2024-01-29T20:13:09.360Z,0.6
2024-01-29T20:19:05.164Z,0.5
2024-01-29T20:25:00.187Z,0.5
2024-01-29T20:30:56.184Z,0.4
2024-01-29T20:36:52.598Z,0.4
2024-01-29T20:43:06.496Z,0.4
2024-01-29T20:48:47.077Z,0.3
2024-01-29T20:54:42.828Z,0.3
2024-01-29T21:00:48.967Z,0.3
2024-01-29T21:06:45.825Z,0.3
2024-01-29T21:12:28.108Z,0.2
2024-01-29T21:18:22.663Z,0.2
2024-01-29T21:24:17.837Z,0.1
2024-01-29T21:30:11.997Z,0
2024-01-29T21:36:09.638Z,-0.1
2024-01-29T21:41:47.962Z,-0.3
2024-01-29T21:47:42.220Z,-0.4
2024-01-29T21:53:37.916Z,-0.6
2024-01-29T21:59:32.517Z,-0.7
2024-01-29T22:10:54.236Z,-1.1
2024-01-29T22:16:48.712Z,-1.3
2024-01-29T22:22:29.069Z,-1.4
2024-01-29T22:28:26.785Z,-1.5
2024-01-29T22:34:20.901Z,-1.6
2024-01-29T22:40:00.146Z,-1.6
2024-01-29T22:45:54.655Z,-1.7
2024-01-29T22:51:33.962Z,-1.8
2024-01-29T22:57:30.407Z,-1.9
2024-01-29T23:03:11.721Z,-2
2024-01-29T23:09:07.122Z,-2
2024-01-29T23:15:01.044Z,-2.2
2024-01-29T23:20:40.184Z,-2.3
2024-01-29T23:26:37.587Z,-2.3
2024-01-29T23:32:31.926Z,-2.4
2024-01-29T23:38:26.766Z,-2.6
2024-01-29T23:44:20.345Z,-2.8
2024-01-29T23:49:59.030Z,-2.7
2024-01-29T23:55:38.290Z,-2.7
